sensor_id;sensor_type;location;lat;lon;timestamp;P1;durP1;ratioP1;P2;durP2;ratioP2
69716;SDS011;67420;46.144;19.666;2023-12-28T00:00:31;25.65;;;17.30;;
69716;SDS011;67420;46.144;19.666;2023-12-28T00:10:33;24.83;;;16.88;;
69716;SDS011;67420;46.144;19.666;2023-12-28T00:20:40;25.30;;;17.58;;
69716;SDS011;67420;46.144;19.666;2023-12-28T00:30:42;27.00;;;16.35;;
69716;SDS011;67420;46.144;19.666;2023-12-28T00:40:44;24.33;;;17.33;;
69716;SDS011;67420;46.144;19.666;2023-12-28T00:50:47;23.83;;;16.70;;
69716;SDS011;67420;46.144;19.666;2023-12-28T01:00:49;21.58;;;15.20;;
69716;SDS011;67420;46.144;19.666;2023-12-28T01:10:55;23.17;;;16.00;;
69716;SDS011;67420;46.144;19.666;2023-12-28T01:20:57;22.58;;;15.73;;
69716;SDS011;67420;46.144;19.666;2023-12-28T01:30:58;21.05;;;15.82;;
69716;SDS011;67420;46.144;19.666;2023-12-28T01:41:00;22.70;;;15.80;;
69716;SDS011;67420;46.144;19.666;2023-12-28T01:51:02;23.35;;;16.48;;
69716;SDS011;67420;46.144;19.666;2023-12-28T02:01:04;21.35;;;15.23;;
69716;SDS011;67420;46.144;19.666;2023-12-28T02:11:06;21.17;;;14.65;;
69716;SDS011;67420;46.144;19.666;2023-12-28T02:21:08;19.27;;;13.82;;
69716;SDS011;67420;46.144;19.666;2023-12-28T02:31:20;22.23;;;14.38;;
69716;SDS011;67420;46.144;19.666;2023-12-28T02:41:26;16.63;;;13.02;;
69716;SDS011;67420;46.144;19.666;2023-12-28T02:51:28;19.67;;;13.50;;
69716;SDS011;67420;46.144;19.666;2023-12-28T03:01:30;18.70;;;13.02;;
69716;SDS011;67420;46.144;19.666;2023-12-28T03:11:32;17.67;;;12.77;;
69716;SDS011;67420;46.144;19.666;2023-12-28T03:21:38;19.08;;;12.23;;
69716;SDS011;67420;46.144;19.666;2023-12-28T03:31:41;18.52;;;12.10;;
69716;SDS011;67420;46.144;19.666;2023-12-28T03:41:43;16.23;;;11.88;;
69716;SDS011;67420;46.144;19.666;2023-12-28T03:51:46;16.05;;;11.40;;
69716;SDS011;67420;46.144;19.666;2023-12-28T04:01:50;16.63;;;11.10;;
69716;SDS011;67420;46.144;19.666;2023-12-28T04:11:52;14.43;;;10.57;;
69716;SDS011;67420;46.144;19.666;2023-12-28T04:21:54;14.93;;;10.50;;
69716;SDS011;67420;46.144;19.666;2023-12-28T04:31:57;13.73;;;10.25;;
69716;SDS011;67420;46.144;19.666;2023-12-28T04:41:59;13.55;;;10.50;;
69716;SDS011;67420;46.144;19.666;2023-12-28T04:52:01;16.48;;;10.68;;
69716;SDS011;67420;46.144;19.666;2023-12-28T05:02:03;12.73;;;9.35;;
69716;SDS011;67420;46.144;19.666;2023-12-28T05:12:05;16.20;;;10.00;;
69716;SDS011;67420;46.144;19.666;2023-12-28T05:22:07;12.70;;;9.15;;
69716;SDS011;67420;46.144;19.666;2023-12-28T05:32:12;12.88;;;9.68;;
69716;SDS011;67420;46.144;19.666;2023-12-28T05:42:14;14.38;;;9.13;;
69716;SDS011;67420;46.144;19.666;2023-12-28T05:52:16;12.43;;;9.48;;
69716;SDS011;67420;46.144;19.666;2023-12-28T06:02:21;13.38;;;9.73;;
69716;SDS011;67420;46.144;19.666;2023-12-28T06:12:23;13.95;;;10.07;;
69716;SDS011;67420;46.144;19.666;2023-12-28T06:22:25;13.98;;;10.15;;
69716;SDS011;67420;46.144;19.666;2023-12-28T06:32:28;14.43;;;11.05;;
69716;SDS011;67420;46.144;19.666;2023-12-28T06:42:32;12.45;;;9.85;;
69716;SDS011;67420;46.144;19.666;2023-12-28T06:52:34;15.27;;;10.48;;
69716;SDS011;67420;46.144;19.666;2023-12-28T07:02:36;16.75;;;10.43;;
69716;SDS011;67420;46.144;19.666;2023-12-28T07:12:38;13.52;;;10.60;;
69716;SDS011;67420;46.144;19.666;2023-12-28T07:22:40;16.02;;;11.57;;
69716;SDS011;67420;46.144;19.666;2023-12-28T07:32:42;18.70;;;11.73;;
69716;SDS011;67420;46.144;19.666;2023-12-28T07:42:46;15.02;;;11.02;;
69716;SDS011;67420;46.144;19.666;2023-12-28T07:52:48;16.73;;;12.48;;
69716;SDS011;67420;46.144;19.666;2023-12-28T08:02:50;17.67;;;12.60;;
69716;SDS011;67420;46.144;19.666;2023-12-28T08:12:53;16.92;;;12.30;;
69716;SDS011;67420;46.144;19.666;2023-12-28T08:22:55;18.05;;;12.60;;
69716;SDS011;67420;46.144;19.666;2023-12-28T08:33:15;17.40;;;12.60;;
69716;SDS011;67420;46.144;19.666;2023-12-28T08:43:17;18.23;;;12.93;;
69716;SDS011;67420;46.144;19.666;2023-12-28T08:53:20;17.77;;;13.45;;
69716;SDS011;67420;46.144;19.666;2023-12-28T09:03:22;20.17;;;13.10;;
69716;SDS011;67420;46.144;19.666;2023-12-28T09:13:25;19.08;;;14.02;;
69716;SDS011;67420;46.144;19.666;2023-12-28T09:23:27;19.65;;;14.25;;
69716;SDS011;67420;46.144;19.666;2023-12-28T09:33:29;19.80;;;14.43;;
69716;SDS011;67420;46.144;19.666;2023-12-28T09:43:33;19.88;;;14.77;;
69716;SDS011;67420;46.144;19.666;2023-12-28T09:53:39;22.77;;;14.95;;
69716;SDS011;67420;46.144;19.666;2023-12-28T10:03:41;22.45;;;16.17;;
69716;SDS011;67420;46.144;19.666;2023-12-28T10:13:44;22.80;;;16.15;;
69716;SDS011;67420;46.144;19.666;2023-12-28T10:23:46;23.08;;;16.00;;
69716;SDS011;67420;46.144;19.666;2023-12-28T10:33:48;23.40;;;16.30;;
69716;SDS011;67420;46.144;19.666;2023-12-28T10:43:54;22.10;;;14.95;;
69716;SDS011;67420;46.144;19.666;2023-12-28T10:54:08;20.60;;;14.77;;
69716;SDS011;67420;46.144;19.666;2023-12-28T11:04:42;17.20;;;13.05;;
69716;SDS011;67420;46.144;19.666;2023-12-28T11:14:50;16.20;;;12.27;;
69716;SDS011;67420;46.144;19.666;2023-12-28T11:24:55;15.38;;;11.18;;
69716;SDS011;67420;46.144;19.666;2023-12-28T11:34:58;14.70;;;10.82;;
69716;SDS011;67420;46.144;19.666;2023-12-28T11:45:00;13.52;;;10.02;;
69716;SDS011;67420;46.144;19.666;2023-12-28T11:55:02;13.50;;;9.10;;
69716;SDS011;67420;46.144;19.666;2023-12-28T12:05:06;14.07;;;8.75;;
69716;SDS011;67420;46.144;19.666;2023-12-28T12:15:09;12.48;;;9.23;;
69716;SDS011;67420;46.144;19.666;2023-12-28T12:25:12;11.18;;;8.25;;
69716;SDS011;67420;46.144;19.666;2023-12-28T12:35:14;9.95;;;7.70;;
69716;SDS011;67420;46.144;19.666;2023-12-28T12:45:16;11.43;;;8.30;;
69716;SDS011;67420;46.144;19.666;2023-12-28T12:55:19;9.50;;;8.00;;
69716;SDS011;67420;46.144;19.666;2023-12-28T13:05:23;12.90;;;9.52;;
69716;SDS011;67420;46.144;19.666;2023-12-28T13:15:26;14.75;;;11.02;;
69716;SDS011;67420;46.144;19.666;2023-12-28T13:25:29;15.80;;;10.95;;
69716;SDS011;67420;46.144;19.666;2023-12-28T13:35:31;14.02;;;10.73;;
69716;SDS011;67420;46.144;19.666;2023-12-28T13:45:36;15.38;;;12.30;;
69716;SDS011;67420;46.144;19.666;2023-12-28T13:55:38;15.23;;;11.98;;
69716;SDS011;67420;46.144;19.666;2023-12-28T14:05:40;16.52;;;12.23;;
69716;SDS011;67420;46.144;19.666;2023-12-28T14:15:44;15.32;;;11.43;;
69716;SDS011;67420;46.144;19.666;2023-12-28T14:25:46;17.60;;;11.73;;
69716;SDS011;67420;46.144;19.666;2023-12-28T14:35:54;15.52;;;11.60;;
69716;SDS011;67420;46.144;19.666;2023-12-28T14:45:57;18.08;;;13.48;;
69716;SDS011;67420;46.144;19.666;2023-12-28T14:55:59;16.05;;;12.70;;
69716;SDS011;67420;46.144;19.666;2023-12-28T15:06:01;20.77;;;13.73;;
69716;SDS011;67420;46.144;19.666;2023-12-28T15:16:03;22.70;;;15.65;;
69716;SDS011;67420;46.144;19.666;2023-12-28T15:26:06;21.52;;;14.98;;
69716;SDS011;67420;46.144;19.666;2023-12-28T15:36:09;20.92;;;15.13;;
69716;SDS011;67420;46.144;19.666;2023-12-28T15:46:11;19.73;;;14.23;;
69716;SDS011;67420;46.144;19.666;2023-12-28T15:56:13;22.05;;;14.93;;
69716;SDS011;67420;46.144;19.666;2023-12-28T16:06:20;22.60;;;15.88;;
69716;SDS011;67420;46.144;19.666;2023-12-28T16:16:22;22.10;;;15.55;;
69716;SDS011;67420;46.144;19.666;2023-12-28T16:26:24;23.90;;;15.50;;
69716;SDS011;67420;46.144;19.666;2023-12-28T16:36:26;23.75;;;17.27;;
69716;SDS011;67420;46.144;19.666;2023-12-28T16:46:29;22.67;;;16.80;;
69716;SDS011;67420;46.144;19.666;2023-12-28T16:56:31;22.92;;;16.42;;
69716;SDS011;67420;46.144;19.666;2023-12-28T17:06:33;24.27;;;17.25;;
69716;SDS011;67420;46.144;19.666;2023-12-28T17:16:36;26.98;;;17.48;;
69716;SDS011;67420;46.144;19.666;2023-12-28T17:26:39;23.67;;;17.23;;
69716;SDS011;67420;46.144;19.666;2023-12-28T17:36:49;24.40;;;17.80;;
69716;SDS011;67420;46.144;19.666;2023-12-28T17:46:57;24.38;;;18.00;;
69716;SDS011;67420;46.144;19.666;2023-12-28T17:57:09;27.02;;;19.05;;
69716;SDS011;67420;46.144;19.666;2023-12-28T18:07:11;23.05;;;17.58;;
69716;SDS011;67420;46.144;19.666;2023-12-28T18:17:13;22.63;;;17.60;;
69716;SDS011;67420;46.144;19.666;2023-12-28T18:27:16;24.15;;;17.38;;
69716;SDS011;67420;46.144;19.666;2023-12-28T18:37:17;23.75;;;17.10;;
69716;SDS011;67420;46.144;19.666;2023-12-28T18:47:19;22.30;;;17.05;;
69716;SDS011;67420;46.144;19.666;2023-12-28T18:57:22;23.35;;;17.33;;
69716;SDS011;67420;46.144;19.666;2023-12-28T19:07:25;23.10;;;16.85;;
69716;SDS011;67420;46.144;19.666;2023-12-28T19:17:27;23.58;;;17.05;;
69716;SDS011;67420;46.144;19.666;2023-12-28T19:27:29;25.00;;;17.58;;
69716;SDS011;67420;46.144;19.666;2023-12-28T19:37:31;24.20;;;16.67;;
69716;SDS011;67420;46.144;19.666;2023-12-28T19:47:34;25.45;;;17.83;;
69716;SDS011;67420;46.144;19.666;2023-12-28T19:57:37;23.25;;;16.80;;
69716;SDS011;67420;46.144;19.666;2023-12-28T20:07:39;23.27;;;16.27;;
69716;SDS011;67420;46.144;19.666;2023-12-28T20:17:43;25.17;;;17.30;;
69716;SDS011;67420;46.144;19.666;2023-12-28T20:27:46;22.45;;;15.80;;
69716;SDS011;67420;46.144;19.666;2023-12-28T20:37:48;24.30;;;15.32;;
69716;SDS011;67420;46.144;19.666;2023-12-28T20:47:52;20.50;;;14.82;;
69716;SDS011;67420;46.144;19.666;2023-12-28T20:57:54;22.77;;;14.80;;
69716;SDS011;67420;46.144;19.666;2023-12-28T21:07:56;18.58;;;14.18;;
69716;SDS011;67420;46.144;19.666;2023-12-28T21:17:58;19.40;;;14.25;;
69716;SDS011;67420;46.144;19.666;2023-12-28T21:28:16;20.13;;;14.13;;
69716;SDS011;67420;46.144;19.666;2023-12-28T21:38:17;19.05;;;13.52;;
69716;SDS011;67420;46.144;19.666;2023-12-28T21:48:19;18.05;;;13.38;;
69716;SDS011;67420;46.144;19.666;2023-12-28T21:58:22;18.45;;;13.30;;
69716;SDS011;67420;46.144;19.666;2023-12-28T22:08:25;18.23;;;12.90;;
69716;SDS011;67420;46.144;19.666;2023-12-28T22:18:28;17.58;;;12.68;;
69716;SDS011;67420;46.144;19.666;2023-12-28T22:28:31;17.95;;;12.55;;
69716;SDS011;67420;46.144;19.666;2023-12-28T22:38:33;18.33;;;12.52;;
69716;SDS011;67420;46.144;19.666;2023-12-28T22:48:34;15.77;;;12.15;;
69716;SDS011;67420;46.144;19.666;2023-12-28T22:58:37;15.52;;;12.80;;
69716;SDS011;67420;46.144;19.666;2023-12-28T23:08:38;18.77;;;12.27;;
69716;SDS011;67420;46.144;19.666;2023-12-28T23:18:41;17.92;;;13.10;;
69716;SDS011;67420;46.144;19.666;2023-12-28T23:28:44;17.23;;;13.07;;
69716;SDS011;67420;46.144;19.666;2023-12-28T23:38:46;17.35;;;13.00;;
69716;SDS011;67420;46.144;19.666;2023-12-28T23:48:48;17.50;;;12.55;;
69716;SDS011;67420;46.144;19.666;2023-12-28T23:58:50;17.70;;;12.23;;
